Time;durP1;ratioP1;P1;durP2;ratioP2;P2;SDS_P1;SDS_P2;PMS_P1;PMS_P2;Temp;Humidity;BMP_temperature;BMP_pressure;BME280_temperature;BME280_humidity;BME280_pressure;Samples;Min_cycle;Max_cycle;Signal;HPM_P1;HPM_P2
2021/09/17 00:00:11;;;;;;;7.60;6.13;;;;;;;13.72;70.54;96816.97;6277708;22;20390;-78
2021/09/17 00:02:38;;;;;;;8.88;6.43;;;;;;;13.67;70.38;96815.97;6277993;22;20031;-78
2021/09/17 00:05:08;;;;;;;9.68;6.85;;;;;;;13.54;70.31;96814.88;6277855;22;20094;-78
2021/09/17 00:07:36;;;;;;;7.35;6.25;;;;;;;13.39;70.58;96816.84;6278201;22;20078;-77
2021/09/17 00:10:04;;;;;;;7.47;6.03;;;;;;;13.26;71.10;96816.72;6277265;22;20355;-78
2021/09/17 00:12:32;;;;;;;8.52;6.63;;;;;;;13.15;71.12;96811.03;6276995;22;20026;-78
2021/09/17 00:15:01;;;;;;;9.05;6.65;;;;;;;13.06;71.50;96820.03;6277284;22;20070;-78
2021/09/17 00:17:29;;;;;;;7.30;6.47;;;;;;;12.99;71.62;96813.97;6277820;22;20024;-77
2021/09/17 00:19:56;;;;;;;11.98;7.10;;;;;;;12.94;72.10;96813.69;6277461;22;20024;-77
2021/09/17 00:22:24;;;;;;;8.23;6.38;;;;;;;12.91;72.17;96817.53;6277927;22;20055;-77
2021/09/17 00:24:51;;;;;;;8.10;6.85;;;;;;;12.90;72.20;96815.91;6280862;22;20043;-78
2021/09/17 00:27:19;;;;;;;6.28;5.40;;;;;;;12.97;72.72;96814.13;6280251;22;20015;-78
2021/09/17 00:29:46;;;;;;;8.50;6.70;;;;;;;13.01;72.07;96817.19;6279919;22;20030;-78
2021/09/17 00:32:15;;;;;;;8.63;6.57;;;;;;;13.04;72.42;96813.38;6278190;22;20020;-78
2021/09/17 00:34:43;;;;;;;7.10;6.40;;;;;;;13.04;72.04;96806.31;6277171;22;20078;-78
2021/09/17 00:37:10;;;;;;;6.35;5.32;;;;;;;13.10;72.66;96800.31;6277502;22;20404;-78
2021/09/17 00:39:38;;;;;;;9.50;6.07;;;;;;;13.14;72.38;96811.22;6277580;22;20016;-78
2021/09/17 00:42:06;;;;;;;9.15;7.32;;;;;;;13.11;71.87;96796.69;6277533;22;20023;-77
2021/09/17 00:44:33;;;;;;;9.90;6.15;;;;;;;13.18;73.10;96802.81;6277436;22;20016;-77
2021/09/17 00:47:01;;;;;;;10.73;7.43;;;;;;;13.23;72.06;96801.38;6277841;22;20024;-78
2021/09/17 00:49:30;;;;;;;8.95;7.07;;;;;;;13.23;71.97;96801.38;6277125;22;20294;-78
2021/09/17 00:51:59;;;;;;;7.22;5.65;;;;;;;13.30;72.79;96804.91;6277033;22;20069;-77
2021/09/17 00:54:28;;;;;;;9.75;6.63;;;;;;;13.34;72.62;96806.13;6277809;22;20020;-78
2021/09/17 00:56:58;;;;;;;7.72;5.95;;;;;;;13.40;72.31;96805.34;6277980;22;20026;-78
2021/09/17 00:59:25;;;;;;;5.78;5.28;;;;;;;13.45;72.50;96792.47;6277228;22;20107;-78
2021/09/17 01:01:53;;;;;;;8.82;6.53;;;;;;;13.50;71.78;96799.75;6277480;22;20222;-78
2021/09/17 01:04:22;;;;;;;7.47;5.82;;;;;;;13.51;71.71;96802.19;6277443;22;20088;-77
2021/09/17 01:06:50;;;;;;;7.60;6.07;;;;;;;13.60;72.53;96801.00;6277700;22;20026;-77
2021/09/17 01:09:18;;;;;;;8.73;6.57;;;;;;;13.63;71.32;96793.75;6276955;22;20087;-78
2021/09/17 01:11:46;;;;;;;6.13;5.35;;;;;;;13.64;71.32;96800.59;6277311;22;20031;-78
2021/09/17 01:14:14;;;;;;;6.85;6.15;;;;;;;13.65;71.18;96799.63;6277845;22;20023;-77
2021/09/17 01:16:41;;;;;;;7.60;6.70;;;;;;;13.64;70.66;96798.78;6277248;22;20019;-77
2021/09/17 01:19:09;;;;;;;6.90;5.88;;;;;;;13.63;71.63;96796.38;6276740;22;20031;-78
2021/09/17 01:21:38;;;;;;;6.65;5.93;;;;;;;13.65;70.95;96802.25;6276880;22;20464;-78
2021/09/17 01:24:06;;;;;;;6.93;5.65;;;;;;;13.60;70.90;96798.38;6276870;22;20477;-78
2021/09/17 01:26:34;;;;;;;6.38;5.00;;;;;;;13.57;71.04;96800.56;6277160;22;20026;-77
2021/09/17 01:29:01;;;;;;;8.77;6.10;;;;;;;13.49;71.01;96793.72;6277281;22;20015;-78
2021/09/17 01:31:29;;;;;;;8.00;6.50;;;;;;;13.42;71.48;96800.72;6277449;22;20035;-78
2021/09/17 01:34:03;;;;;;;8.10;6.68;;;;;;;13.35;71.34;96795.44;6276726;22;20012;-77
2021/09/17 01:36:30;;;;;;;6.82;5.70;;;;;;;13.28;71.83;96791.16;6276859;22;20030;-77
2021/09/17 01:38:59;;;;;;;7.90;6.78;;;;;;;13.27;72.25;96789.53;6276434;22;20020;-78
2021/09/17 01:41:28;;;;;;;11.60;6.90;;;;;;;13.25;71.93;96781.03;6277349;22;20023;-77
2021/09/17 01:43:55;;;;;;;7.85;6.25;;;;;;;13.22;72.32;96781.44;6276576;22;20012;-77
2021/09/17 01:46:23;;;;;;;7.22;6.30;;;;;;;13.18;72.36;96775.78;6276749;22;20024;-78
2021/09/17 01:48:50;;;;;;;8.02;5.85;;;;;;;13.20;72.72;96773.78;6275827;22;20030;-78
2021/09/17 01:51:18;;;;;;;11.15;6.85;;;;;;;13.25;72.70;96776.63;6274682;22;20016;-78
2021/09/17 01:53:46;;;;;;;11.43;6.82;;;;;;;13.25;72.55;96770.56;6274302;22;20019;-78
2021/09/17 01:56:15;;;;;;;8.20;6.57;;;;;;;13.25;72.82;96767.94;6274778;22;20024;-77
2021/09/17 01:58:43;;;;;;;9.00;6.95;;;;;;;13.25;72.73;96763.53;6274075;22;20026;-77
2021/09/17 02:01:11;;;;;;;7.75;5.65;;;;;;;13.34;73.36;96758.97;6274014;22;20019;-77
2021/09/17 02:03:39;;;;;;;9.57;7.35;;;;;;;13.42;72.60;96755.38;6274135;22;20348;-78
2021/09/17 02:06:07;;;;;;;10.98;8.15;;;;;;;13.43;72.44;96757.00;6275149;22;20030;-77
2021/09/17 02:08:34;;;;;;;9.30;7.60;;;;;;;13.43;72.61;96752.56;6276069;22;20362;-78
2021/09/17 02:11:02;;;;;;;10.35;6.88;;;;;;;13.43;72.48;96751.75;6274961;22;20106;-78
2021/09/17 02:13:31;;;;;;;9.32;5.85;;;;;;;13.49;73.19;96759.63;6276204;22;20027;-78
2021/09/17 02:15:58;;;;;;;5.95;5.18;;;;;;;13.59;73.22;96752.19;6275511;22;20024;-78
2021/09/17 02:18:26;;;;;;;11.73;7.38;;;;;;;13.64;72.41;96753.44;6276054;22;20030;-78
2021/09/17 02:20:53;;;;;;;6.97;6.28;;;;;;;13.63;72.31;96754.44;6276517;22;20376;-78
2021/09/17 02:23:21;;;;;;;5.88;5.28;;;;;;;13.65;73.09;96752.44;6276143;22;20030;-78
2021/09/17 02:25:48;;;;;;;8.38;5.95;;;;;;;13.73;72.89;96753.06;6276701;22;20038;-78
2021/09/17 02:28:16;;;;;;;8.75;6.05;;;;;;;13.82;72.67;96751.06;6276078;22;20026;-78
2021/09/17 02:30:45;;;;;;;8.82;6.22;;;;;;;13.83;72.09;96750.06;6276439;22;20026;-77
2021/09/17 02:33:12;;;;;;;8.27;7.35;;;;;;;13.78;71.69;96747.22;6276806;22;20020;-78
2021/09/17 02:35:40;;;;;;;7.75;5.90;;;;;;;13.74;71.91;96744.19;6276636;22;20019;-78
2021/09/17 02:38:07;;;;;;;7.35;5.50;;;;;;;13.77;72.39;96741.19;6276073;22;20028;-77
2021/09/17 02:40:35;;;;;;;7.10;6.40;;;;;;;13.82;72.13;96743.19;6276237;22;20016;-78
2021/09/17 02:43:03;;;;;;;8.23;5.55;;;;;;;13.83;72.22;96739.56;6276501;22;20019;-78
2021/09/17 02:45:30;;;;;;;7.20;6.00;;;;;;;13.89;72.63;96743.22;6276551;22;20020;-78
2021/09/17 02:47:59;;;;;;;9.35;6.93;;;;;;;13.93;72.32;96740.00;6277491;22;20355;-78
2021/09/17 02:50:27;;;;;;;7.15;5.97;;;;;;;13.98;72.37;96745.44;6287146;22;20481;-78
2021/09/17 02:52:54;;;;;;;8.60;7.38;;;;;;;13.98;71.88;96740.19;6288865;22;20474;-78
2021/09/17 02:55:21;;;;;;;8.25;6.53;;;;;;;13.98;72.61;96740.19;6284860;22;20030;-78
2021/09/17 02:57:49;;;;;;;8.95;6.22;;;;;;;14.02;72.71;96736.16;6276929;22;20027;-78
2021/09/17 03:00:18;;;;;;;7.45;5.60;;;;;;;14.09;72.78;96735.38;6276302;22;20019;-78
2021/09/17 03:02:46;;;;;;;7.22;5.80;;;;;;;14.14;72.22;96727.69;6276508;22;20015;-78
2021/09/17 03:05:15;;;;;;;12.10;7.43;;;;;;;14.11;71.44;96730.72;6276695;22;20069;-78
2021/09/17 03:07:43;;;;;;;8.35;6.63;;;;;;;14.04;71.79;96733.34;6276239;22;20467;-78
2021/09/17 03:10:11;;;;;;;6.88;5.68;;;;;;;13.97;72.20;96735.97;6276276;22;20477;-78
2021/09/17 03:12:39;;;;;;;6.03;5.35;;;;;;;13.99;72.75;96736.59;6276388;22;20019;-78
2021/09/17 03:15:07;;;;;;;7.07;5.28;;;;;;;14.08;72.44;96733.75;6276375;22;20024;-78
2021/09/17 03:17:35;;;;;;;7.38;5.05;;;;;;;14.14;72.53;96730.31;6276495;22;20027;-78
2021/09/17 03:20:03;;;;;;;8.50;6.88;;;;;;;14.13;71.57;96720.84;6275940;22;20375;-78
2021/09/17 03:22:32;;;;;;;8.65;5.68;;;;;;;14.09;72.28;96727.50;6278115;22;20015;-77
2021/09/17 03:25:00;;;;;;;8.32;7.03;;;;;;;14.11;72.42;96722.88;6278699;22;20020;-77
2021/09/17 03:27:28;;;;;;;7.70;6.65;;;;;;;14.14;72.50;96727.69;6278645;22;20020;-78
2021/09/17 03:29:55;;;;;;;6.72;6.05;;;;;;;14.20;72.32;96726.91;6278115;22;20024;-77
2021/09/17 03:32:23;;;;;;;10.65;6.63;;;;;;;14.20;71.72;96730.31;6278643;22;20046;-78
2021/09/17 03:34:50;;;;;;;6.07;5.40;;;;;;;14.20;72.37;96727.69;6278346;22;20024;-77
2021/09/17 03:37:18;;;;;;;7.97;6.10;;;;;;;14.21;71.74;96724.09;6299301;22;20010;-77
2021/09/17 03:39:46;;;;;;;7.05;5.68;;;;;;;14.16;71.62;96726.47;6304996;22;20052;-76
2021/09/17 03:42:14;;;;;;;6.43;5.45;;;;;;;14.16;71.78;96725.69;6304754;22;20135;-78
2021/09/17 03:44:41;;;;;;;6.47;5.45;;;;;;;14.16;72.18;96729.09;6301657;22;20054;-77
2021/09/17 03:47:09;;;;;;;6.50;5.18;;;;;;;14.20;72.55;96726.91;6305703;22;20026;-78
2021/09/17 03:49:37;;;;;;;9.57;7.43;;;;;;;14.16;71.95;96726.47;6305002;22;20068;-77
2021/09/17 03:52:04;;;;;;;8.98;7.38;;;;;;;14.11;72.07;96726.28;6304900;22;20007;-77
2021/09/17 03:54:32;;;;;;;6.30;5.70;;;;;;;14.07;72.30;96725.06;6305137;22;20058;-77
2021/09/17 03:57:01;;;;;;;7.38;6.28;;;;;;;14.06;72.36;96720.03;6283659;22;20072;-80
2021/09/17 03:59:28;;;;;;;6.80;4.82;;;;;;;14.08;72.88;96723.25;6276766;22;20031;-80
2021/09/17 04:02:00;;;;;;;8.05;6.65;;;;;;;14.13;72.70;96716.41;6277411;22;20016;-80
2021/09/17 04:04:28;;;;;;;8.95;6.40;;;;;;;14.16;72.35;96709.94;6276848;22;20020;-80
2021/09/17 04:06:55;;;;;;;6.13;5.53;;;;;;;14.22;72.77;96715.19;6277202;22;20028;-80
2021/09/17 04:09:23;;;;;;;9.27;5.70;;;;;;;14.30;72.62;96722.06;6276892;22;20034;-80
2021/09/17 04:11:51;;;;;;;8.13;5.95;;;;;;;14.35;72.43;96719.63;6277105;22;20019;-80
2021/09/17 04:14:19;;;;;;;7.63;5.97;;;;;;;14.37;72.43;96716.81;6277304;22;20442;-80
2021/09/17 04:16:47;;;;;;;5.75;4.53;;;;;;;14.40;72.39;96713.78;6277080;22;20015;-80
2021/09/17 04:19:14;;;;;;;10.38;6.57;;;;;;;14.41;72.30;96708.34;6276431;22;20020;-80
2021/09/17 04:21:42;;;;;;;5.80;5.22;;;;;;;14.42;72.63;96714.38;6277102;22;20035;-79
2021/09/17 04:24:09;;;;;;;6.47;4.68;;;;;;;14.46;72.79;96715.59;6277118;22;20027;-79
2021/09/17 04:26:37;;;;;;;5.95;5.35;;;;;;;14.50;72.46;96718.63;6277318;22;20027;-80
2021/09/17 04:29:05;;;;;;;5.57;4.97;;;;;;;14.55;72.77;96721.47;6276674;22;20024;-80
2021/09/17 04:31:34;;;;;;;6.03;5.43;;;;;;;14.58;72.51;96729.75;6276512;22;20015;-80
2021/09/17 04:34:02;;;;;;;7.88;5.03;;;;;;;14.60;72.25;96726.91;6276667;22;20027;-80
2021/09/17 04:36:29;;;;;;;9.55;5.97;;;;;;;14.59;72.53;96725.31;6276980;22;20358;-80
2021/09/17 04:38:56;;;;;;;9.93;6.28;;;;;;;14.55;72.04;96730.16;6276630;22;20456;-80
2021/09/17 04:41:24;;;;;;;12.38;9.05;;;;;;;14.53;72.57;96729.50;6276589;22;20502;-80
2021/09/17 04:43:51;;;;;;;7.95;6.90;;;;;;;14.52;72.18;96727.09;6277074;22;20024;-80
2021/09/17 04:46:19;;;;;;;6.85;6.15;;;;;;;14.51;72.07;96738.59;6276976;22;20101;-80
2021/09/17 04:48:48;;;;;;;9.77;6.78;;;;;;;14.50;72.20;96731.75;6276705;22;20042;-80
2021/09/17 04:51:15;;;;;;;8.43;7.03;;;;;;;14.47;72.16;96732.13;6276750;22;20359;-80
2021/09/17 04:53:43;;;;;;;6.70;6.07;;;;;;;14.44;72.40;96741.22;6276679;22;20026;-80
2021/09/17 04:56:10;;;;;;;5.03;4.53;;;;;;;14.47;73.17;96737.38;6276424;22;20027;-80
2021/09/17 04:58:43;;;;;;;6.88;4.85;;;;;;;14.54;73.12;96733.75;6276646;22;20015;-80
2021/09/17 05:01:14;;;;;;;8.23;6.60;;;;;;;14.58;72.26;96739.44;6277136;22;20023;-80
2021/09/17 05:03:56;;;;;;;4.63;4.20;;;;;;;14.60;72.65;96742.66;6277097;22;20027;-79
2021/09/17 05:06:24;;;;;;;6.88;5.53;;;;;;;14.60;72.38;96737.41;6279447;22;20020;-81
2021/09/17 05:08:52;;;;;;;9.48;6.55;;;;;;;14.55;72.43;96742.47;6282698;22;20027;-81
2021/09/17 05:11:20;;;;;;;6.97;5.80;;;;;;;14.50;72.36;96739.63;6283995;22;20019;-82
2021/09/17 05:13:47;;;;;;;6.30;5.50;;;;;;;14.49;73.06;96746.66;6279724;22;20347;-80
2021/09/17 05:16:15;;;;;;;6.40;5.53;;;;;;;14.52;72.75;96748.06;6277582;22;20016;-81
2021/09/17 05:18:43;;;;;;;6.40;4.88;;;;;;;14.53;73.60;96747.09;6285835;22;20023;-81
2021/09/17 05:21:13;;;;;;;6.47;5.65;;;;;;;14.59;73.26;96752.34;6281526;22;20347;-81
2021/09/17 05:23:41;;;;;;;6.43;5.60;;;;;;;14.58;72.34;96748.13;6292575;22;20031;-82
2021/09/17 05:26:09;;;;;;;10.63;6.20;;;;;;;14.55;72.79;96755.59;6291988;22;20055;-81
2021/09/17 05:28:38;;;;;;;6.50;5.30;;;;;;;14.54;72.92;96748.69;6292543;22;20099;-81
2021/09/17 05:36:25;;;;;;;9.03;7.07;;;;;;;14.64;73.01;96751.75;6252653;22;20015;-80
2021/09/17 05:38:53;;;;;;;9.95;5.55;;;;;;;14.67;73.24;96747.91;6294586;22;20245;-80
2021/09/17 05:41:21;;;;;;;10.77;6.65;;;;;;;14.67;72.60;96742.66;6296112;22;20016;-79
2021/09/17 05:43:50;;;;;;;7.55;5.18;;;;;;;14.69;73.48;96749.31;6287474;22;20471;-79
2021/09/17 05:46:18;;;;;;;9.55;6.25;;;;;;;14.72;73.16;96750.75;6284409;22;20473;-79
2021/09/17 05:48:45;;;;;;;9.40;6.43;;;;;;;14.74;72.85;96752.16;6275087;22;20344;-79
2021/09/17 05:51:13;;;;;;;12.35;6.82;;;;;;;14.76;72.80;96749.31;6274819;22;20390;-79
2021/09/17 05:54:02;;;;;;;7.88;5.97;;;;;;;14.78;73.12;96756.00;6275079;22;20027;-79
2021/09/17 05:56:29;;;;;;;11.65;6.72;;;;;;;14.83;73.10;96753.53;6275388;22;20016;-79
2021/09/17 05:58:57;;;;;;;10.07;6.53;;;;;;;14.82;72.72;96751.94;6276843;22;20019;-79
2021/09/17 06:01:24;;;;;;;9.95;7.38;;;;;;;14.83;72.82;96753.53;6275873;22;20020;-80
2021/09/17 06:03:52;;;;;;;8.75;6.40;;;;;;;14.90;73.33;96752.72;6277649;22;20063;-80
2021/09/17 06:06:20;;;;;;;10.38;6.78;;;;;;;14.94;73.27;96749.47;6277188;22;20043;-81
2021/09/17 06:08:48;;;;;;;8.73;6.72;;;;;;;14.98;73.17;96755.16;6277699;22;20020;-80
2021/09/17 06:11:18;;;;;;;8.35;6.13;;;;;;;14.99;72.73;96751.50;6276763;22;20038;-79
2021/09/17 06:13:45;;;;;;;12.43;7.97;;;;;;;14.98;72.33;96744.63;6275972;22;20012;-80
2021/09/17 06:16:13;;;;;;;10.82;7.20;;;;;;;14.98;72.34;96747.25;6276001;22;20019;-80
2021/09/17 06:18:45;;;;;;;7.22;6.47;;;;;;;14.98;72.56;96747.25;6275773;22;20466;-80
2021/09/17 06:21:13;;;;;;;11.10;7.10;;;;;;;15.00;72.76;96743.41;6275980;22;20026;-80
2021/09/17 06:23:41;;;;;;;8.90;7.03;;;;;;;15.02;72.82;96746.66;6276194;22;20030;-80
2021/09/17 06:26:09;;;;;;;13.93;8.77;;;;;;;15.03;72.24;96742.19;6275543;22;20039;-80
2021/09/17 06:28:38;;;;;;;9.02;7.88;;;;;;;15.01;72.04;96750.28;6275869;22;20020;-80
2021/09/17 06:31:05;;;;;;;12.18;8.15;;;;;;;15.02;72.07;96745.81;6275991;22;20024;-80
2021/09/17 06:33:33;;;;;;;6.75;6.00;;;;;;;15.04;72.58;96747.25;6275542;22;20467;-80
2021/09/17 06:36:01;;;;;;;14.95;9.15;;;;;;;15.06;71.99;96747.03;6283956;22;20020;-80
2021/09/17 06:38:28;;;;;;;15.77;8.27;;;;;;;15.04;72.04;96747.25;6302503;22;20024;-79
2021/09/17 06:40:56;;;;;;;15.30;7.47;;;;;;;15.06;72.44;96747.03;6300302;22;20023;-80
2021/09/17 06:43:23;;;;;;;10.18;7.10;;;;;;;15.11;72.49;96752.47;6277165;22;20019;-80
2021/09/17 06:45:52;;;;;;;13.05;7.78;;;;;;;15.13;71.87;96753.09;6276667;22;20016;-80
2021/09/17 06:48:20;;;;;;;7.70;6.65;;;;;;;15.16;71.98;96752.66;6284868;22;20019;-80
2021/09/17 06:50:47;;;;;;;10.93;7.10;;;;;;;15.17;71.79;96756.09;6298045;22;20043;-80
2021/09/17 06:53:15;;;;;;;13.95;8.30;;;;;;;15.14;71.91;96752.06;6280959;22;20020;-80
2021/09/17 06:55:43;;;;;;;9.90;6.65;;;;;;;15.17;72.04;96751.63;6275682;22;20493;-80
2021/09/17 06:58:10;;;;;;;9.07;6.43;;;;;;;15.23;72.80;96747.38;6277227;22;20016;-80
2021/09/17 07:00:39;;;;;;;8.25;6.68;;;;;;;15.28;71.49;96746.75;6275798;22;20403;-80
2021/09/17 07:03:08;;;;;;;13.52;8.02;;;;;;;15.28;71.57;96752.00;6276153;22;20071;-79
2021/09/17 07:05:36;;;;;;;8.32;5.88;;;;;;;15.31;72.11;96746.34;6275856;22;20023;-80
2021/09/17 07:08:05;;;;;;;11.13;7.43;;;;;;;15.33;71.51;96754.84;6275848;22;20060;-80
2021/09/17 07:10:35;;;;;;;7.10;5.85;;;;;;;15.37;72.26;96756.84;6275482;22;20024;-80
2021/09/17 07:13:03;;;;;;;8.52;7.30;;;;;;;15.40;71.39;96753.00;6275339;22;20011;-80
2021/09/17 07:15:31;;;;;;;10.48;8.35;;;;;;;15.41;71.44;96757.22;6275410;22;20487;-80
2021/09/17 07:17:59;;;;;;;7.85;7.05;;;;;;;15.43;71.64;96761.25;6248455;22;20015;-80
2021/09/17 07:20:29;;;;;;;9.40;7.78;;;;;;;15.45;71.61;96763.69;6275793;22;20019;-80
2021/09/17 07:22:56;;;;;;;8.75;7.85;;;;;;;15.48;71.34;96760.66;6275639;22;20109;-80
2021/09/17 07:25:24;;;;;;;9.27;6.93;;;;;;;15.53;71.47;96758.19;6276350;22;20362;-80
2021/09/17 07:27:52;;;;;;;10.75;8.98;;;;;;;15.57;71.22;96769.09;6275693;22;20035;-80
2021/09/17 07:30:21;;;;;;;13.13;9.32;;;;;;;15.57;71.16;96766.47;6278481;22;20394;-78
2021/09/17 07:32:49;;;;;;;10.13;9.07;;;;;;;15.59;71.01;96762.63;6281209;22;20030;-80
2021/09/17 07:35:20;;;;;;;14.00;8.68;;;;;;;15.64;71.33;96759.34;6282257;22;20058;-80
2021/09/17 07:37:50;;;;;;;11.32;8.85;;;;;;;15.66;71.01;96763.38;6280434;22;20026;-80
2021/09/17 07:40:18;;;;;;;13.95;8.88;;;;;;;15.69;70.93;96761.34;6275838;22;20027;-80
2021/09/17 07:42:48;;;;;;;9.93;8.15;;;;;;;15.73;71.10;96762.59;6276417;22;20370;-80
2021/09/17 07:45:16;;;;;;;13.15;9.75;;;;;;;15.75;70.93;96758.72;6277822;22;20016;-80
2021/09/17 07:47:45;;;;;;;13.68;8.88;;;;;;;15.81;71.12;96759.72;6281887;22;20031;-80
2021/09/17 07:50:14;;;;;;;12.82;9.57;;;;;;;15.84;70.70;96754.03;6280936;22;20022;-80
2021/09/17 07:52:42;;;;;;;11.55;8.77;;;;;;;15.89;71.69;96756.00;6276064;22;20026;-80
2021/09/17 07:55:12;;;;;;;12.95;9.82;;;;;;;15.91;71.24;96760.03;6275600;22;20522;-80
2021/09/17 07:57:40;;;;;;;13.80;10.30;;;;;;;15.93;71.10;96758.00;6275733;22;20016;-80
2021/09/17 08:00:10;;;;;;;10.10;8.07;;;;;;;15.97;72.14;96759.19;6275146;22;20020;-80
2021/09/17 08:02:38;;;;;;;12.35;10.50;;;;;;;16.05;71.43;96758.97;6276181;22;20336;-80
2021/09/17 08:05:11;;;;;;;14.20;9.80;;;;;;;16.10;70.93;96758.31;6275660;22;20020;-80
2021/09/17 08:07:39;;;;;;;12.35;9.00;;;;;;;16.17;70.89;96750.38;6275760;22;20351;-80
2021/09/17 08:10:07;;;;;;;12.10;10.40;;;;;;;16.19;69.89;96757.03;6277619;22;20022;-80
2021/09/17 08:12:36;;;;;;;10.38;8.95;;;;;;;16.19;70.46;96758.88;6278373;22;20020;-80
2021/09/17 08:15:06;;;;;;;11.20;8.65;;;;;;;16.23;70.70;96760.84;6277416;22;20107;-80
2021/09/17 08:17:34;;;;;;;10.30;9.30;;;;;;;16.25;70.08;96763.28;6277782;22;20030;-80
2021/09/17 08:20:04;;;;;;;10.85;9.63;;;;;;;16.29;70.04;96767.09;6277367;22;20219;-80
2021/09/17 08:22:32;;;;;;;11.48;8.70;;;;;;;16.34;70.61;96763.81;6277565;22;20094;-80
2021/09/17 08:25:01;;;;;;;13.50;9.93;;;;;;;16.37;69.64;96763.38;6277276;22;20405;-80
2021/09/17 08:27:28;;;;;;;11.15;9.50;;;;;;;16.38;68.90;96762.38;6277493;22;20099;-79
2021/09/17 08:29:57;;;;;;;9.73;8.73;;;;;;;16.37;68.66;96758.91;6276924;22;20034;-80
2021/09/17 08:32:25;;;;;;;14.05;10.55;;;;;;;16.38;68.35;96760.56;6277584;22;20359;-80
2021/09/17 08:34:52;;;;;;;13.43;9.63;;;;;;;16.41;68.55;96754.84;6277810;22;20016;-80
2021/09/17 08:37:20;;;;;;;10.57;9.32;;;;;;;16.44;68.34;96754.44;6277016;22;20012;-80
2021/09/17 08:39:47;;;;;;;10.43;9.30;;;;;;;16.49;67.88;96764.31;6277594;22;20351;-80
2021/09/17 08:42:16;;;;;;;12.45;8.85;;;;;;;16.52;67.79;96757.81;6277644;22;20463;-80
2021/09/17 08:44:44;;;;;;;11.60;8.48;;;;;;;16.58;67.90;96757.75;6278378;22;20028;-80
2021/09/17 08:47:17;;;;;;;10.30;8.85;;;;;;;16.65;67.21;96765.59;6279714;22;20027;-80
2021/09/17 08:49:45;;;;;;;8.63;7.68;;;;;;;16.71;67.05;96767.38;6279420;22;20045;-80
2021/09/17 08:52:13;;;;;;;11.60;8.23;;;;;;;16.75;66.76;96760.66;6287489;22;20043;-80
2021/09/17 08:54:41;;;;;;;10.73;7.68;;;;;;;16.78;66.61;96760.22;6277818;22;20191;-80
2021/09/17 08:57:10;;;;;;;9.43;7.45;;;;;;;16.83;66.25;96756.94;6278561;22;20031;-80
2021/09/17 08:59:38;;;;;;;7.80;6.97;;;;;;;16.91;66.54;96758.50;6278294;22;20024;-80
2021/09/17 09:02:22;;;;;;;10.38;7.18;;;;;;;17.02;65.96;96761.22;6278050;22;20027;-80
2021/09/17 09:04:55;;;;;;;7.93;6.60;;;;;;;17.13;65.99;96757.06;6279413;22;20102;-80
2021/09/17 09:07:28;;;;;;;10.82;6.82;;;;;;;17.24;65.35;96753.69;6279593;22;20012;-80
2021/09/17 09:09:55;;;;;;;;;;;;;;;17.38;66.10;96753.53;6280856;22;20023;-80
2021/09/17 09:12:25;;;;;;;8.45;7.13;;;;;;;17.44;64.74;96753.44;6280501;22;19915;-80
2021/09/17 09:15:12;;;;;;;6.97;5.53;;;;;;;17.49;65.51;96750.97;6281081;22;20019;-80
2021/09/17 09:17:41;;;;;;;7.20;5.38;;;;;;;17.56;65.07;96756.16;6281395;22;20020;-80
2021/09/17 09:20:21;;;;;;;6.90;5.75;;;;;;;17.63;63.86;96756.06;6280930;22;20015;-80
2021/09/17 09:23:04;;;;;;;6.13;5.50;;;;;;;17.70;64.33;96757.59;6281815;22;20011;-80
2021/09/17 09:25:32;;;;;;;8.80;6.70;;;;;;;17.75;63.23;96758.75;6282443;22;20023;-80
2021/09/17 09:28:11;;;;;;;8.07;6.57;;;;;;;17.76;62.54;96755.09;6282951;22;20030;-80
2021/09/17 09:30:39;;;;;;;10.27;6.50;;;;;;;17.83;62.70;96747.94;6283426;22;20016;-80
2021/09/17 09:33:31;;;;;;;6.32;5.72;;;;;;;17.95;63.04;96751.41;6284325;22;20022;-80
2021/09/17 09:36:02;;;;;;;7.75;6.43;;;;;;;18.10;62.58;96746.53;6286092;22;20011;-80
2021/09/17 09:38:31;;;;;;;8.88;6.32;;;;;;;18.32;62.63;96745.97;6287975;22;20043;-80
2021/09/17 09:41:00;;;;;;;7.10;6.07;;;;;;;18.54;61.60;96751.50;6289670;22;20019;-80
2021/09/17 09:43:30;;;;;;;8.80;6.30;;;;;;;18.65;59.81;96747.28;6290816;22;20043;-80
2021/09/17 09:46:23;;;;;;;7.78;5.63;;;;;;;18.68;59.96;96747.63;6290186;22;20042;-80
2021/09/17 09:49:14;;;;;;;5.63;5.05;;;;;;;18.68;60.03;96736.25;6291496;22;20037;-82
2021/09/17 09:51:54;;;;;;;6.03;5.40;;;;;;;18.66;60.03;96738.34;6290974;22;20016;-80
2021/09/17 09:54:24;;;;;;;6.97;5.65;;;;;;;18.64;60.29;96740.41;6290722;22;20443;-80
2021/09/17 09:56:53;;;;;;;5.20;4.28;;;;;;;18.61;60.18;96732.94;6286026;22;20023;-80
2021/09/17 09:59:25;;;;;;;4.80;4.30;;;;;;;18.61;60.43;96731.09;6282027;22;20447;-80
2021/09/17 10:01:58;;;;;;;5.05;3.83;;;;;;;18.64;59.79;96725.34;6282756;22;20051;-80
2021/09/17 10:04:28;;;;;;;5.90;3.75;;;;;;;18.64;59.31;96730.63;6280939;22;20015;-81
2021/09/17 10:07:03;;;;;;;5.18;3.70;;;;;;;18.60;58.81;96723.38;6277245;22;20019;-80
2021/09/17 10:09:31;;;;;;;4.88;3.30;;;;;;;18.62;59.71;96721.31;6276481;22;20015;-81
2021/09/17 10:12:00;;;;;;;7.78;5.13;;;;;;;18.65;58.78;96715.56;6276430;22;20023;-80
2021/09/17 10:14:29;;;;;;;4.82;4.32;;;;;;;18.70;59.16;96711.22;6276271;22;20020;-80
2021/09/17 10:16:58;;;;;;;4.00;3.70;;;;;;;18.79;59.80;96717.00;6276802;22;20019;-80
2021/09/17 10:19:28;;;;;;;5.00;4.47;;;;;;;18.85;59.31;96718.72;6276152;22;20090;-80
2021/09/17 10:21:58;;;;;;;4.60;3.83;;;;;;;18.90;58.72;96718.81;6276016;22;20019;-80
2021/09/17 10:24:36;;;;;;;4.28;3.80;;;;;;;18.96;58.83;96716.25;6276434;22;20024;-80
2021/09/17 10:27:06;;;;;;;4.13;3.10;;;;;;;19.09;58.70;96710.75;6276242;22;20020;-80
2021/09/17 10:29:35;;;;;;;2.80;2.47;;;;;;;19.25;56.38;96710.00;6275951;22;20024;-80
2021/09/17 10:32:04;;;;;;;3.47;1.50;;;;;;;19.35;56.99;96714.72;6276018;22;20026;-80
2021/09/17 10:34:36;;;;;;;2.25;1.60;;;;;;;19.41;55.02;96712.97;6276515;22;20091;-80
2021/09/17 10:37:04;;;;;;;2.77;1.43;;;;;;;19.44;54.97;96707.19;6277083;22;20019;-80
2021/09/17 10:39:32;;;;;;;3.42;1.40;;;;;;;19.47;54.68;96706.72;6280044;22;20019;-80
2021/09/17 10:42:12;;;;;;;3.50;2.13;;;;;;;19.46;53.83;96705.09;6280026;22;20024;-80
2021/09/17 10:45:17;;;;;;;3.72;1.65;;;;;;;19.42;53.83;96717.22;6279674;22;20460;-79
2021/09/17 10:47:58;;;;;;;3.03;2.08;;;;;;;19.38;53.96;96708.16;6276034;22;20323;-80
2021/09/17 10:50:43;;;;;;;2.90;1.80;;;;;;;19.37;54.29;96704.69;6275730;22;20027;-80
2021/09/17 10:53:11;;;;;;;2.85;2.15;;;;;;;19.39;53.65;96702.59;6276305;22;20039;-80
2021/09/17 10:56:03;;;;;;;1.98;1.80;;;;;;;19.50;54.31;96693.03;6276587;22;20020;-80
2021/09/17 10:58:32;;;;;;;4.45;2.67;;;;;;;19.62;53.65;96699.09;6276655;22;20020;-80
2021/09/17 11:01:02;;;;;;;21.15;3.50;;;;;;;19.67;53.30;96696.50;6276349;22;20023;-80
2021/09/17 11:03:58;;;;;;;4.43;2.40;;;;;;;19.72;53.53;96701.94;6276465;22;20026;-80
2021/09/17 11:06:29;;;;;;;3.17;2.40;;;;;;;20.17;53.84;96698.47;6277696;22;20020;-80
2021/09/17 11:09:02;;;;;;;4.10;2.60;;;;;;;20.74;52.40;96694.03;6276878;22;20094;-80
2021/09/17 11:11:34;;;;;;;3.72;2.67;;;;;;;21.15;50.84;96695.38;6275857;22;20022;-80
2021/09/17 11:14:05;;;;;;;3.35;2.22;;;;;;;21.35;50.22;96694.00;6276283;22;20070;-80
2021/09/17 11:16:33;;;;;;;2.72;2.50;;;;;;;21.42;49.63;96692.00;6276112;22;20016;-80
2021/09/17 11:19:05;;;;;;;3.38;2.28;;;;;;;21.35;48.57;96686.06;6275852;22;20436;-80
2021/09/17 11:21:35;;;;;;;2.85;1.52;;;;;;;21.48;49.42;96693.66;6276107;22;20019;-80
2021/09/17 11:24:04;;;;;;;2.38;1.58;;;;;;;22.00;48.94;96693.09;6275769;22;20026;-80
2021/09/17 11:26:34;;;;;;;1.63;1.25;;;;;;;22.33;46.80;96690.50;6275654;22;20015;-80
2021/09/17 11:29:04;;;;;;;2.65;1.50;;;;;;;22.29;45.53;96687.53;6275889;22;20023;-80
2021/09/17 11:31:34;;;;;;;2.47;1.92;;;;;;;22.15;46.19;96686.31;6275457;22;20019;-80
2021/09/17 11:34:03;;;;;;;2.78;1.67;;;;;;;21.92;45.51;96682.94;6275788;22;20012;-81
2021/09/17 11:36:40;;;;;;;2.95;1.58;;;;;;;21.65;46.30;96688.28;6275963;22;20026;-81
2021/09/17 11:39:17;;;;;;;3.17;1.40;;;;;;;21.45;47.30;96688.03;6275751;22;20031;-80
2021/09/17 11:41:46;;;;;;;2.17;1.40;;;;;;;21.27;47.96;96689.13;6276353;22;20016;-80
2021/09/17 11:44:34;;;;;;;1.77;1.33;;;;;;;21.11;49.08;96685.50;6278008;22;20340;-80
2021/09/17 11:47:02;;;;;;;1.70;1.33;;;;;;;20.97;49.32;96688.53;6277680;22;20406;-80